Aberdeen, Pennsylvania
Current Conditions -  °F | °C
As of 4:56 AM on Thursday 23 Oct 2014 (Local Time) from KMDT Reporting Station
Overcast Overcast  
Wind Chill: 12°   Ceiling: 3100
Heat Index: 12°   Visibility: 10mi
Dew Point:   Wind: 13mph
Humidity: 66%   Direction: 340°NNW
Pressure: 29.87"   Gusts: 29mph
Location:  40.1674°N, 76.6045°W
Report Text: KMDT 230856Z 34011G25KT 10SM BKN031 OVC080 12/06 A2987 RMK AO2 PK WND 32026/0818 SLP116 60000 T01170056 55000
Loading
Personal Weather Stations






























Interactive Weather Map New forecast layout! Learn more

10-Day Weather Forecast

Advertisements
Track Severe Weather on mobile